Station History

Weather Underground - logo

Station Historical Data
Daily Summary for January 15, 2018 Units:  Both    English   Metric
« Previous Day
Next Day »
Daily Weekly Monthly Yearly Custom
  High: Low: Average:
Temperature: 62.8 °F /  17.1 °C 40.4 °F /  4.7 °C 51.2 °F /  10.7 °C
Dew Point: 55.0 °F /  12.8 °C 39.6 °F /  4.2 °C 48.2 °F /  9 °C
Humidity: 98 % 73 % 90 %
Wind Speed: 4.6 mph /  7.4 km/h - 0.5 mph /  0.8 km/h
Wind Gust: 4.6 mph /  7.4 km/h - -
Wind:- - SSW
Pressure: 30.19 in /  1022.2 hPa 30.07 in /  1018.2 hPa -
Precipitation: 0.01 in /  0.25 mm    
Historical Graphs
 
 
Tabular Data for January 15, 2018
Time Temperature Dew Point Pressure Wind Wind Speed Wind Gust Humidity Rainfall Rate (Hourly)
00:05 46.9 °F /  8.3 °C 46.1 °F /  7.8 °C 30.16 in /  1021.2 hPa ESE 1.2 mph /  1.9 km/h   97 % 0.00 in /  0 mm
00:16 46.9 °F /  8.3 °C 46.1 °F /  7.8 °C 30.18 in /  1021.9 hPa Calm     97 % 0.00 in /  0 mm
00:25 46.6 °F /  8.1 °C 45.8 °F /  7.7 °C 30.18 in /  1021.9 hPa Calm     97 % 0.00 in /  0 mm
00:38 45.7 °F /  7.6 °C 44.6 °F /  7 °C 30.19 in /  1022.2 hPa ESE 1.2 mph /  1.9 km/h 1.2 mph /  1.9 km/h 96 % 0.00 in /  0 mm
00:44 45.8 °F /  7.7 °C 45.0 °F /  7.2 °C 30.19 in /  1022.2 hPa Calm     97 % 0.00 in /  0 mm
01:03 46.0 °F /  7.8 °C 45.2 °F /  7.3 °C 30.18 in /  1021.9 hPa Calm     97 % 0.00 in /  0 mm
01:13 46.3 °F /  7.9 °C 45.5 °F /  7.5 °C 30.19 in /  1022.2 hPa Calm     97 % 0.01 in /  0.25 mm
01:24 45.5 °F /  7.5 °C 44.7 °F /  7.1 °C 30.18 in /  1021.9 hPa Calm     97 % 0.01 in /  0.25 mm
01:30 45.4 °F /  7.4 °C 44.6 °F /  7 °C 30.17 in /  1021.6 hPa Calm     97 % 0.01 in /  0.25 mm
01:43 44.9 °F /  7.2 °C 44.1 °F /  6.7 °C 30.16 in /  1021.2 hPa Calm     97 % 0.01 in /  0.25 mm
01:55 44.3 °F /  6.8 °C 43.2 °F /  6.2 °C 30.15 in /  1020.9 hPa Calm     96 % 0.01 in /  0.25 mm
02:01 44.1 °F /  6.7 °C 43.0 °F /  6.1 °C 30.15 in /  1020.9 hPa Calm     96 % 0.01 in /  0.25 mm
02:06 44.0 °F /  6.7 °C 42.9 °F /  6.1 °C 30.14 in /  1020.5 hPa ESE 4.6 mph /  7.4 km/h 4.6 mph /  7.4 km/h 96 % 0.00 in /  0 mm
02:11 43.7 °F /  6.5 °C 42.6 °F /  5.9 °C 30.14 in /  1020.5 hPa Calm     96 % 0.00 in /  0 mm
02:17 43.4 °F /  6.3 °C 42.3 °F /  5.7 °C 30.14 in /  1020.5 hPa Calm     96 % 0.00 in /  0 mm
02:29 43.1 °F /  6.2 °C 42.0 °F /  5.6 °C 30.13 in /  1020.2 hPa Calm     96 % 0.00 in /  0 mm
02:40 42.7 °F /  5.9 °C 41.6 °F /  5.3 °C 30.12 in /  1019.9 hPa Calm     96 % 0.00 in /  0 mm
02:55 42.5 °F /  5.8 °C 41.7 °F /  5.4 °C 30.11 in /  1019.5 hPa ESE 1.2 mph /  1.9 km/h   97 % 0.00 in /  0 mm
03:00 42.7 °F /  5.9 °C 41.9 °F /  5.5 °C 30.12 in /  1019.9 hPa Calm     97 % 0.00 in /  0 mm
03:09 42.7 °F /  5.9 °C 41.9 °F /  5.5 °C 30.12 in /  1019.9 hPa Calm     97 % 0.00 in /  0 mm
03:15 42.8 °F /  6 °C 42.0 °F /  5.6 °C 30.11 in /  1019.5 hPa Calm     97 % 0.00 in /  0 mm
03:21 42.7 °F /  5.9 °C 41.9 °F /  5.5 °C 30.11 in /  1019.5 hPa Calm     97 % 0.00 in /  0 mm
03:29 42.5 °F /  5.8 °C 41.7 °F /  5.4 °C 30.12 in /  1019.9 hPa Calm     97 % 0.00 in /  0 mm
03:36 42.4 °F /  5.8 °C 41.6 °F /  5.3 °C 30.11 in /  1019.5 hPa ESE 1.2 mph /  1.9 km/h 1.2 mph /  1.9 km/h 97 % 0.00 in /  0 mm
03:45 42.3 °F /  5.7 °C 41.5 °F /  5.3 °C 30.12 in /  1019.9 hPa Calm     97 % 0.00 in /  0 mm
03:51 42.5 °F /  5.8 °C 41.7 °F /  5.4 °C 30.12 in /  1019.9 hPa Calm     97 % 0.00 in /  0 mm
03:58 42.7 °F /  5.9 °C 41.9 °F /  5.5 °C 30.12 in /  1019.9 hPa ESE 1.2 mph /  1.9 km/h 1.2 mph /  1.9 km/h 97 % 0.00 in /  0 mm
04:08 42.8 °F /  6 °C 42.0 °F /  5.6 °C 30.12 in /  1019.9 hPa ESE 1.2 mph /  1.9 km/h 1.2 mph /  1.9 km/h 97 % 0.00 in /  0 mm
04:17 42.9 °F /  6.1 °C 42.1 °F /  5.6 °C 30.13 in /  1020.2 hPa Calm     97 % 0.00 in /  0 mm
04:25 43.1 °F /  6.2 °C 42.3 °F /  5.7 °C 30.13 in /  1020.2 hPa Calm     97 % 0.00 in /  0 mm
04:32 43.3 °F /  6.3 °C 42.5 °F /  5.8 °C 30.13 in /  1020.2 hPa Calm     97 % 0.00 in /  0 mm
04:37 43.3 °F /  6.3 °C 42.5 °F /  5.8 °C 30.13 in /  1020.2 hPa Calm     97 % 0.00 in /  0 mm
04:46 43.3 °F /  6.3 °C 42.5 °F /  5.8 °C 30.14 in /  1020.5 hPa ESE 1.0 mph /  1.6 km/h   97 % 0.00 in /  0 mm
04:55 43.2 °F /  6.2 °C 42.4 °F /  5.8 °C 30.14 in /  1020.5 hPa WNW 1.2 mph /  1.9 km/h   97 % 0.00 in /  0 mm
05:02 42.9 °F /  6.1 °C 42.1 °F /  5.6 °C 30.14 in /  1020.5 hPa Calm     97 % 0.00 in /  0 mm
05:07 42.9 °F /  6.1 °C 42.1 °F /  5.6 °C 30.14 in /  1020.5 hPa Calm     97 % 0.00 in /  0 mm
05:20 42.9 °F /  6.1 °C 42.1 °F /  5.6 °C 30.14 in /  1020.5 hPa Calm     97 % 0.00 in /  0 mm
05:26 42.9 °F /  6.1 °C 42.1 °F /  5.6 °C 30.15 in /  1020.9 hPa Calm     97 % 0.00 in /  0 mm
05:31 43.0 °F /  6.1 °C 42.2 °F /  5.7 °C 30.15 in /  1020.9 hPa Calm     97 % 0.00 in /  0 mm
06:00 41.9 °F /  5.5 °C 41.1 °F /  5.1 °C 30.15 in /  1020.9 hPa Calm     97 % 0.00 in /  0 mm
06:26 41.6 °F /  5.3 °C 40.8 °F /  4.9 °C 30.15 in /  1020.9 hPa Calm     97 % 0.00 in /  0 mm
06:31 41.5 °F /  5.3 °C 40.7 °F /  4.8 °C 30.15 in /  1020.9 hPa Calm     97 % 0.00 in /  0 mm
06:54 40.9 °F /  4.9 °C 40.1 °F /  4.5 °C 30.16 in /  1021.2 hPa Calm     97 % 0.00 in /  0 mm
07:09 40.6 °F /  4.8 °C 39.8 °F /  4.3 °C 30.16 in /  1021.2 hPa Calm     97 % 0.00 in /  0 mm
07:19 40.4 °F /  4.7 °C 39.6 °F /  4.2 °C 30.16 in /  1021.2 hPa Calm     97 % 0.00 in /  0 mm
07:33 40.4 °F /  4.7 °C 39.6 °F /  4.2 °C 30.17 in /  1021.6 hPa Calm     97 % 0.00 in /  0 mm
07:40 40.6 °F /  4.8 °C 39.8 °F /  4.3 °C 30.16 in /  1021.2 hPa Calm     97 % 0.00 in /  0 mm
07:46 40.9 °F /  4.9 °C 40.1 °F /  4.5 °C 30.16 in /  1021.2 hPa Calm     97 % 0.00 in /  0 mm
08:04 41.9 °F /  5.5 °C 41.1 °F /  5.1 °C 30.15 in /  1020.9 hPa Calm     97 % 0.00 in /  0 mm
08:18 44.3 °F /  6.8 °C 43.8 °F /  6.6 °C 30.15 in /  1020.9 hPa Calm     98 % 0.00 in /  0 mm
08:45 46.6 °F /  8.1 °C 46.1 °F /  7.8 °C 30.15 in /  1020.9 hPa SE 1.0 mph /  1.6 km/h 1.0 mph /  1.6 km/h 98 % 0.00 in /  0 mm
08:55 48.3 °F /  9.1 °C 47.8 °F /  8.8 °C 30.15 in /  1020.9 hPa SE 1.2 mph /  1.9 km/h   98 % 0.00 in /  0 mm
09:06 48.7 °F /  9.3 °C 48.2 °F /  9 °C 30.15 in /  1020.9 hPa West 1.2 mph /  1.9 km/h   98 % 0.00 in /  0 mm
09:14 48.9 °F /  9.4 °C 48.4 °F /  9.1 °C 30.15 in /  1020.9 hPa West 1.2 mph /  1.9 km/h 1.2 mph /  1.9 km/h 98 % 0.00 in /  0 mm
09:19 49.4 °F /  9.7 °C 48.9 °F /  9.4 °C 30.15 in /  1020.9 hPa NW 2.3 mph /  3.7 km/h 2.3 mph /  3.7 km/h 98 % 0.00 in /  0 mm
09:28 50.3 °F /  10.2 °C 49.8 °F /  9.9 °C 30.15 in /  1020.9 hPa WNW 1.0 mph /  1.6 km/h 1.0 mph /  1.6 km/h 98 % 0.00 in /  0 mm
09:33 50.6 °F /  10.3 °C 49.8 °F /  9.9 °C 30.15 in /  1020.9 hPa NW 1.2 mph /  1.9 km/h 1.2 mph /  1.9 km/h 97 % 0.00 in /  0 mm
09:38 51.3 °F /  10.7 °C 50.5 °F /  10.3 °C 30.15 in /  1020.9 hPa SE 1.2 mph /  1.9 km/h 1.2 mph /  1.9 km/h 97 % 0.00 in /  0 mm
09:44 52.0 °F /  11.1 °C 50.9 °F /  10.5 °C 30.16 in /  1021.2 hPa WSW 3.5 mph /  5.6 km/h 3.5 mph /  5.6 km/h 96 % 0.00 in /  0 mm
09:50 52.6 °F /  11.4 °C 50.6 °F /  10.3 °C 30.16 in /  1021.2 hPa North 3.5 mph /  5.6 km/h 3.5 mph /  5.6 km/h 93 % 0.00 in /  0 mm
10:02 52.8 °F /  11.6 °C 50.2 °F /  10.1 °C 30.17 in /  1021.6 hPa West 3.5 mph /  5.6 km/h 3.5 mph /  5.6 km/h 91 % 0.00 in /  0 mm
10:07 52.6 °F /  11.4 °C 50.0 °F /  10 °C 30.16 in /  1021.2 hPa NW 1.2 mph /  1.9 km/h 1.2 mph /  1.9 km/h 91 % 0.00 in /  0 mm
10:12 52.8 °F /  11.6 °C 50.2 °F /  10.1 °C 30.16 in /  1021.2 hPa NW 1.2 mph /  1.9 km/h 1.2 mph /  1.9 km/h 91 % 0.00 in /  0 mm
10:25 53.1 °F /  11.7 °C 50.2 °F /  10.1 °C 30.16 in /  1021.2 hPa NW 1.2 mph /  1.9 km/h 1.2 mph /  1.9 km/h 90 % 0.00 in /  0 mm
10:36 53.6 °F /  12 °C 50.7 °F /  10.4 °C 30.16 in /  1021.2 hPa Calm     90 % 0.00 in /  0 mm
10:42 54.3 °F /  12.4 °C 51.4 °F /  10.8 °C 30.16 in /  1021.2 hPa WNW 1.2 mph /  1.9 km/h 1.2 mph /  1.9 km/h 90 % 0.00 in /  0 mm
10:52 55.1 °F /  12.8 °C 51.6 °F /  10.9 °C 30.16 in /  1021.2 hPa SE 1.2 mph /  1.9 km/h 1.2 mph /  1.9 km/h 88 % 0.00 in /  0 mm
10:58 55.5 °F /  13.1 °C 51.4 °F /  10.8 °C 30.16 in /  1021.2 hPa WNW 2.3 mph /  3.7 km/h 2.3 mph /  3.7 km/h 86 % 0.00 in /  0 mm
11:10 56.0 °F /  13.3 °C 51.6 °F /  10.9 °C 30.16 in /  1021.2 hPa Calm     85 % 0.00 in /  0 mm
11:16 56.8 °F /  13.8 °C 52.0 °F /  11.1 °C 30.16 in /  1021.2 hPa North 2.3 mph /  3.7 km/h 2.3 mph /  3.7 km/h 84 % 0.00 in /  0 mm
11:26 57.4 °F /  14.1 °C 51.9 °F /  11.1 °C 30.16 in /  1021.2 hPa North 1.2 mph /  1.9 km/h 1.2 mph /  1.9 km/h 82 % 0.00 in /  0 mm
11:33 57.9 °F /  14.4 °C 52.8 °F /  11.6 °C 30.16 in /  1021.2 hPa West 2.3 mph /  3.7 km/h 2.3 mph /  3.7 km/h 83 % 0.00 in /  0 mm
11:44 57.8 °F /  14.3 °C 52.0 °F /  11.1 °C 30.16 in /  1021.2 hPa NW 1.2 mph /  1.9 km/h 1.2 mph /  1.9 km/h 81 % 0.00 in /  0 mm
11:49 57.5 °F /  14.2 °C 52.0 °F /  11.1 °C 30.16 in /  1021.2 hPa Calm     82 % 0.00 in /  0 mm
12:02 57.5 °F /  14.2 °C 52.0 °F /  11.1 °C 30.15 in /  1020.9 hPa Calm     82 % 0.00 in /  0 mm
12:11 58.1 °F /  14.5 °C 52.6 °F /  11.4 °C 30.15 in /  1020.9 hPa Calm     82 % 0.00 in /  0 mm
12:16 58.6 °F /  14.8 °C 52.8 °F /  11.6 °C 30.14 in /  1020.5 hPa Calm     81 % 0.00 in /  0 mm
12:28 59.8 °F /  15.4 °C 53.6 °F /  12 °C 30.13 in /  1020.2 hPa SSE 2.3 mph /  3.7 km/h 2.3 mph /  3.7 km/h 80 % 0.00 in /  0 mm
12:36 60.3 °F /  15.7 °C 53.4 °F /  11.9 °C 30.13 in /  1020.2 hPa Calm     78 % 0.00 in /  0 mm
12:46 60.8 °F /  16 °C 53.9 °F /  12.2 °C 30.13 in /  1020.2 hPa Calm     78 % 0.00 in /  0 mm
12:47 60.8 °F /  16 °C 53.9 °F /  12.2 °C 30.13 in /  1020.2 hPa Calm     78 % 0.00 in /  0 mm
12:48 60.9 °F /  16.1 °C 53.6 °F /  12 °C 30.13 in /  1020.2 hPa Calm   0.2 mph /  0.3 km/h 77 % 0.00 in /  0 mm
12:49 61.0 °F /  16.1 °C 53.7 °F /  12.1 °C 30.13 in /  1020.2 hPa ENE 1.2 mph /  1.9 km/h 1.2 mph /  1.9 km/h 77 % 0.00 in /  0 mm
12:50 61.0 °F /  16.1 °C 53.4 °F /  11.9 °C 30.13 in /  1020.2 hPa ENE 1.2 mph /  1.9 km/h 1.2 mph /  1.9 km/h 76 % 0.00 in /  0 mm
12:52 61.1 °F /  16.2 °C 53.8 °F /  12.1 °C 30.12 in /  1019.9 hPa ESE 1.2 mph /  1.9 km/h 1.2 mph /  1.9 km/h 77 % 0.00 in /  0 mm
12:53 61.1 °F /  16.2 °C 53.5 °F /  11.9 °C 30.12 in /  1019.9 hPa ESE 1.2 mph /  1.9 km/h 1.2 mph /  1.9 km/h 76 % 0.00 in /  0 mm
12:55 61.1 °F /  16.2 °C 53.5 °F /  11.9 °C 30.12 in /  1019.9 hPa Calm     76 % 0.00 in /  0 mm
12:59 61.2 °F /  16.2 °C 53.9 °F /  12.2 °C 30.12 in /  1019.9 hPa Calm     77 % 0.00 in /  0 mm
13:02 61.4 °F /  16.3 °C 54.1 °F /  12.3 °C 30.12 in /  1019.9 hPa Calm     77 % 0.00 in /  0 mm
13:06 61.6 °F /  16.4 °C 53.6 °F /  12 °C 30.12 in /  1019.9 hPa Calm     75 % 0.00 in /  0 mm
13:17 61.8 °F /  16.6 °C 53.8 °F /  12.1 °C 30.11 in /  1019.5 hPa Calm     75 % 0.00 in /  0 mm
13:26 61.8 °F /  16.6 °C 54.2 °F /  12.3 °C 30.11 in /  1019.5 hPa ESE 1.2 mph /  1.9 km/h 1.2 mph /  1.9 km/h 76 % 0.00 in /  0 mm
13:31 61.7 °F /  16.5 °C 54.1 °F /  12.3 °C 30.11 in /  1019.5 hPa Calm     76 % 0.00 in /  0 mm
13:38 61.6 °F /  16.4 °C 54.3 °F /  12.4 °C 30.11 in /  1019.5 hPa Calm     77 % 0.00 in /  0 mm
14:05 61.4 °F /  16.3 °C 54.8 °F /  12.7 °C 30.09 in /  1018.8 hPa Calm     79 % 0.00 in /  0 mm
14:13 61.5 °F /  16.4 °C 54.6 °F /  12.6 °C 30.09 in /  1018.8 hPa Calm     78 % 0.00 in /  0 mm
14:21 61.6 °F /  16.4 °C 54.3 °F /  12.4 °C 30.10 in /  1019.2 hPa Calm     77 % 0.00 in /  0 mm
14:34 61.8 °F /  16.6 °C 54.5 °F /  12.5 °C 30.10 in /  1019.2 hPa Calm     77 % 0.00 in /  0 mm
14:42 62.0 °F /  16.7 °C 54.7 °F /  12.6 °C 30.10 in /  1019.2 hPa NW 1.0 mph /  1.6 km/h 1.0 mph /  1.6 km/h 77 % 0.00 in /  0 mm
14:55 62.3 °F /  16.8 °C 55.0 °F /  12.8 °C 30.11 in /  1019.5 hPa Calm     77 % 0.00 in /  0 mm
15:04 62.4 °F /  16.9 °C 54.7 °F /  12.6 °C 30.11 in /  1019.5 hPa NW 2.3 mph /  3.7 km/h 2.3 mph /  3.7 km/h 76 % 0.00 in /  0 mm
15:10 62.5 °F /  16.9 °C 54.8 °F /  12.7 °C 30.11 in /  1019.5 hPa Calm     76 % 0.00 in /  0 mm
15:17 62.6 °F /  17 °C 54.2 °F /  12.3 °C 30.10 in /  1019.2 hPa Calm     74 % 0.00 in /  0 mm
15:32 62.8 °F /  17.1 °C 54.0 °F /  12.2 °C 30.09 in /  1018.8 hPa Calm     73 % 0.00 in /  0 mm
15:37 62.8 °F /  17.1 °C 54.4 °F /  12.4 °C 30.09 in /  1018.8 hPa Calm     74 % 0.00 in /  0 mm
15:59 62.2 °F /  16.8 °C 54.9 °F /  12.7 °C 30.11 in /  1019.5 hPa NW 1.2 mph /  1.9 km/h   77 % 0.00 in /  0 mm
16:17 61.7 °F /  16.5 °C 54.1 °F /  12.3 °C 30.10 in /  1019.2 hPa Calm   0.1 mph /  0.2 km/h 76 % 0.00 in /  0 mm
16:23 61.8 °F /  16.6 °C 54.2 °F /  12.3 °C 30.10 in /  1019.2 hPa NNW 1.2 mph /  1.9 km/h   76 % 0.00 in /  0 mm
16:30 61.7 °F /  16.5 °C 54.1 °F /  12.3 °C 30.08 in /  1018.5 hPa Calm     76 % 0.00 in /  0 mm
16:50 60.9 °F /  16.1 °C 54.0 °F /  12.2 °C 30.08 in /  1018.5 hPa Calm     78 % 0.00 in /  0 mm
17:14 58.4 °F /  14.7 °C 53.6 °F /  12 °C 30.08 in /  1018.5 hPa Calm     84 % 0.00 in /  0 mm
17:26 57.5 °F /  14.2 °C 53.3 °F /  11.8 °C 30.08 in /  1018.5 hPa Calm     86 % 0.00 in /  0 mm
17:32 57.1 °F /  13.9 °C 53.0 °F /  11.7 °C 30.08 in /  1018.5 hPa Calm     86 % 0.00 in /  0 mm
17:49 56.1 °F /  13.4 °C 52.9 °F /  11.6 °C 30.07 in /  1018.2 hPa Calm     89 % 0.00 in /  0 mm
18:04 55.1 °F /  12.8 °C 52.2 °F /  11.2 °C 30.08 in /  1018.5 hPa Calm     90 % 0.00 in /  0 mm
18:15 54.7 °F /  12.6 °C 51.8 °F /  11 °C 30.08 in /  1018.5 hPa Calm     90 % 0.00 in /  0 mm
18:25 54.2 °F /  12.3 °C 51.6 °F /  10.9 °C 30.08 in /  1018.5 hPa Calm     91 % 0.00 in /  0 mm
18:32 53.6 °F /  12 °C 51.0 °F /  10.6 °C 30.08 in /  1018.5 hPa Calm     91 % 0.00 in /  0 mm
18:48 53.0 °F /  11.7 °C 50.7 °F /  10.4 °C 30.09 in /  1018.8 hPa Calm     92 % 0.00 in /  0 mm
19:09 52.0 °F /  11.1 °C 50.0 °F /  10 °C 30.09 in /  1018.8 hPa Calm     93 % 0.00 in /  0 mm
19:16 51.8 °F /  11 °C 49.8 °F /  9.9 °C 30.09 in /  1018.8 hPa Calm     93 % 0.00 in /  0 mm
19:26 51.6 °F /  10.9 °C 49.9 °F /  9.9 °C 30.09 in /  1018.8 hPa Calm     94 % 0.00 in /  0 mm
19:46 51.7 °F /  10.9 °C 50.0 °F /  10 °C 30.09 in /  1018.8 hPa Calm     94 % 0.00 in /  0 mm
20:14 50.2 °F /  10.1 °C 48.5 °F /  9.2 °C 30.11 in /  1019.5 hPa Calm     94 % 0.00 in /  0 mm
20:33 49.7 °F /  9.8 °C 48.3 °F /  9.1 °C 30.14 in /  1020.5 hPa NW 1.2 mph /  1.9 km/h 1.2 mph /  1.9 km/h 95 % 0.00 in /  0 mm
20:49 50.7 °F /  10.4 °C 49.6 °F /  9.8 °C 30.15 in /  1020.9 hPa NW 1.2 mph /  1.9 km/h 1.2 mph /  1.9 km/h 96 % 0.00 in /  0 mm
21:02 50.8 °F /  10.4 °C 49.7 °F /  9.8 °C 30.15 in /  1020.9 hPa Calm     96 % 0.00 in /  0 mm
21:15 50.3 °F /  10.2 °C 49.2 °F /  9.6 °C 30.15 in /  1020.9 hPa Calm     96 % 0.00 in /  0 mm
21:23 50.3 °F /  10.2 °C 49.2 °F /  9.6 °C 30.15 in /  1020.9 hPa Calm     96 % 0.00 in /  0 mm
21:41 49.8 °F /  9.9 °C 48.7 °F /  9.3 °C 30.15 in /  1020.9 hPa Calm     96 % 0.00 in /  0 mm
21:53 49.1 °F /  9.5 °C 47.7 °F /  8.7 °C 30.16 in /  1021.2 hPa Calm     95 % 0.00 in /  0 mm
21:58 48.7 °F /  9.3 °C 47.3 °F /  8.5 °C 30.15 in /  1020.9 hPa Calm     95 % 0.00 in /  0 mm
22:11 48.4 °F /  9.1 °C 47.3 °F /  8.5 °C 30.14 in /  1020.5 hPa ESE 1.2 mph /  1.9 km/h   96 % 0.00 in /  0 mm
22:17 48.4 °F /  9.1 °C 47.3 °F /  8.5 °C 30.14 in /  1020.5 hPa Calm     96 % 0.00 in /  0 mm
22:23 48.6 °F /  9.2 °C 47.5 °F /  8.6 °C 30.14 in /  1020.5 hPa Calm     96 % 0.00 in /  0 mm
22:54 47.2 °F /  8.4 °C 45.8 °F /  7.7 °C 30.15 in /  1020.9 hPa Calm     95 % 0.00 in /  0 mm
23:00 47.4 °F /  8.6 °C 46.3 °F /  7.9 °C 30.15 in /  1020.9 hPa Calm     96 % 0.00 in /  0 mm
23:06 47.1 °F /  8.4 °C 46.0 °F /  7.8 °C 30.15 in /  1020.9 hPa Calm     96 % 0.00 in /  0 mm
23:11 47.0 °F /  8.3 °C 45.9 °F /  7.7 °C 30.15 in /  1020.9 hPa Calm     96 % 0.00 in /  0 mm
23:18 47.2 °F /  8.4 °C 46.1 °F /  7.8 °C 30.15 in /  1020.9 hPa Calm     96 % 0.00 in /  0 mm
23:25 47.2 °F /  8.4 °C 46.1 °F /  7.8 °C 30.15 in /  1020.9 hPa Calm     96 % 0.00 in /  0 mm
23:32 47.2 °F /  8.4 °C 46.1 °F /  7.8 °C 30.14 in /  1020.5 hPa Calm     96 % 0.00 in /  0 mm
23:53 47.2 °F /  8.4 °C 46.1 °F /  7.8 °C 30.15 in /  1020.9 hPa Calm     96 % 0.00 in /  0 mm
Park Place, Exeter, Tulare County, California, USA
Compliments of Weather Underground - 2 mb